sensor_id;sensor_type;location;lat;lon;timestamp;P1;durP1;ratioP1;P2;durP2;ratioP2
68310;SDS011;55157;51.036;17.058;2023-09-30T00:00:21;30.27;;;14.98;;
68310;SDS011;55157;51.036;17.058;2023-09-30T00:02:46;39.20;;;19.48;;
68310;SDS011;55157;51.036;17.058;2023-09-30T00:05:11;23.35;;;13.73;;
68310;SDS011;55157;51.036;17.058;2023-09-30T00:07:37;21.20;;;10.85;;
68310;SDS011;55157;51.036;17.058;2023-09-30T00:10:04;20.23;;;10.10;;
68310;SDS011;55157;51.036;17.058;2023-09-30T00:12:29;26.15;;;13.82;;
68310;SDS011;55157;51.036;17.058;2023-09-30T00:14:55;14.57;;;9.73;;
68310;SDS011;55157;51.036;17.058;2023-09-30T00:17:20;18.45;;;10.73;;
68310;SDS011;55157;51.036;17.058;2023-09-30T00:19:45;17.63;;;8.82;;
68310;SDS011;55157;51.036;17.058;2023-09-30T00:22:10;12.30;;;7.70;;
68310;SDS011;55157;51.036;17.058;2023-09-30T00:24:36;13.10;;;8.50;;
68310;SDS011;55157;51.036;17.058;2023-09-30T00:27:02;10.10;;;7.53;;
68310;SDS011;55157;51.036;17.058;2023-09-30T00:29:28;14.63;;;9.55;;
68310;SDS011;55157;51.036;17.058;2023-09-30T00:31:53;12.23;;;7.97;;
68310;SDS011;55157;51.036;17.058;2023-09-30T00:34:18;13.90;;;7.78;;
68310;SDS011;55157;51.036;17.058;2023-09-30T00:36:43;13.32;;;7.18;;
68310;SDS011;55157;51.036;17.058;2023-09-30T00:39:09;15.48;;;7.45;;
68310;SDS011;55157;51.036;17.058;2023-09-30T00:41:34;14.95;;;7.80;;
68310;SDS011;55157;51.036;17.058;2023-09-30T00:44:00;10.93;;;6.90;;
68310;SDS011;55157;51.036;17.058;2023-09-30T00:46:26;14.77;;;8.00;;
68310;SDS011;55157;51.036;17.058;2023-09-30T00:48:51;10.10;;;7.78;;
68310;SDS011;55157;51.036;17.058;2023-09-30T00:51:17;14.00;;;8.40;;
68310;SDS011;55157;51.036;17.058;2023-09-30T00:53:42;11.05;;;7.63;;
68310;SDS011;55157;51.036;17.058;2023-09-30T00:56:08;12.13;;;8.95;;
68310;SDS011;55157;51.036;17.058;2023-09-30T00:58:34;11.15;;;7.75;;
68310;SDS011;55157;51.036;17.058;2023-09-30T01:01:02;10.00;;;8.02;;
68310;SDS011;55157;51.036;17.058;2023-09-30T01:03:27;14.15;;;9.18;;
68310;SDS011;55157;51.036;17.058;2023-09-30T01:05:52;12.68;;;8.02;;
68310;SDS011;55157;51.036;17.058;2023-09-30T01:08:18;13.60;;;8.18;;
68310;SDS011;55157;51.036;17.058;2023-09-30T01:10:44;13.40;;;7.80;;
68310;SDS011;55157;51.036;17.058;2023-09-30T01:13:09;10.85;;;7.85;;
68310;SDS011;55157;51.036;17.058;2023-09-30T01:15:34;11.20;;;7.72;;
68310;SDS011;55157;51.036;17.058;2023-09-30T01:18:01;11.45;;;7.60;;
68310;SDS011;55157;51.036;17.058;2023-09-30T01:20:26;13.45;;;8.35;;
68310;SDS011;55157;51.036;17.058;2023-09-30T01:22:53;9.30;;;7.10;;
68310;SDS011;55157;51.036;17.058;2023-09-30T01:25:18;10.63;;;7.97;;
68310;SDS011;55157;51.036;17.058;2023-09-30T01:27:43;11.38;;;7.78;;
68310;SDS011;55157;51.036;17.058;2023-09-30T01:30:09;16.75;;;8.25;;
68310;SDS011;55157;51.036;17.058;2023-09-30T01:32:34;14.25;;;7.85;;
68310;SDS011;55157;51.036;17.058;2023-09-30T01:34:59;14.88;;;7.75;;
68310;SDS011;55157;51.036;17.058;2023-09-30T01:37:26;8.85;;;7.95;;
68310;SDS011;55157;51.036;17.058;2023-09-30T01:39:53;12.35;;;7.60;;
68310;SDS011;55157;51.036;17.058;2023-09-30T01:42:18;11.40;;;8.15;;
68310;SDS011;55157;51.036;17.058;2023-09-30T01:44:43;10.65;;;8.02;;
68310;SDS011;55157;51.036;17.058;2023-09-30T01:47:09;14.95;;;7.63;;
68310;SDS011;55157;51.036;17.058;2023-09-30T01:49:34;11.77;;;7.47;;
68310;SDS011;55157;51.036;17.058;2023-09-30T01:51:59;10.30;;;7.28;;
68310;SDS011;55157;51.036;17.058;2023-09-30T01:54:24;12.65;;;8.35;;
68310;SDS011;55157;51.036;17.058;2023-09-30T01:56:51;18.70;;;7.13;;
68310;SDS011;55157;51.036;17.058;2023-09-30T01:59:16;11.43;;;7.88;;
68310;SDS011;55157;51.036;17.058;2023-09-30T02:01:41;10.23;;;7.30;;
68310;SDS011;55157;51.036;17.058;2023-09-30T02:04:07;14.15;;;8.10;;
68310;SDS011;55157;51.036;17.058;2023-09-30T02:06:32;10.20;;;6.47;;
68310;SDS011;55157;51.036;17.058;2023-09-30T02:08:57;13.80;;;6.30;;
68310;SDS011;55157;51.036;17.058;2023-09-30T02:11:22;14.23;;;6.38;;
68310;SDS011;55157;51.036;17.058;2023-09-30T02:13:49;8.10;;;6.10;;
68310;SDS011;55157;51.036;17.058;2023-09-30T02:16:14;12.40;;;6.15;;
68310;SDS011;55157;51.036;17.058;2023-09-30T02:18:41;12.82;;;6.30;;
68310;SDS011;55157;51.036;17.058;2023-09-30T02:21:06;11.18;;;6.07;;
68310;SDS011;55157;51.036;17.058;2023-09-30T02:23:31;8.27;;;5.97;;
68310;SDS011;55157;51.036;17.058;2023-09-30T02:25:56;8.68;;;6.25;;
68310;SDS011;55157;51.036;17.058;2023-09-30T02:28:22;8.75;;;5.47;;
68310;SDS011;55157;51.036;17.058;2023-09-30T02:30:48;12.18;;;5.60;;
68310;SDS011;55157;51.036;17.058;2023-09-30T02:33:14;9.65;;;5.20;;
68310;SDS011;55157;51.036;17.058;2023-09-30T02:35:43;8.27;;;5.05;;
68310;SDS011;55157;51.036;17.058;2023-09-30T02:38:08;8.90;;;5.35;;
68310;SDS011;55157;51.036;17.058;2023-09-30T02:40:33;8.80;;;5.50;;
68310;SDS011;55157;51.036;17.058;2023-09-30T02:42:58;10.85;;;6.97;;
68310;SDS011;55157;51.036;17.058;2023-09-30T02:45:24;9.32;;;5.20;;
68310;SDS011;55157;51.036;17.058;2023-09-30T02:47:50;11.38;;;5.10;;
68310;SDS011;55157;51.036;17.058;2023-09-30T02:50:15;8.75;;;5.22;;
68310;SDS011;55157;51.036;17.058;2023-09-30T02:52:41;10.32;;;5.32;;
68310;SDS011;55157;51.036;17.058;2023-09-30T02:55:06;13.25;;;5.57;;
68310;SDS011;55157;51.036;17.058;2023-09-30T02:57:32;9.23;;;4.80;;
68310;SDS011;55157;51.036;17.058;2023-09-30T02:59:57;8.50;;;5.18;;
68310;SDS011;55157;51.036;17.058;2023-09-30T03:02:22;14.38;;;5.68;;
68310;SDS011;55157;51.036;17.058;2023-09-30T03:04:49;9.88;;;5.40;;
68310;SDS011;55157;51.036;17.058;2023-09-30T03:07:14;10.55;;;5.80;;
68310;SDS011;55157;51.036;17.058;2023-09-30T03:09:39;12.07;;;5.47;;
68310;SDS011;55157;51.036;17.058;2023-09-30T03:12:05;11.77;;;5.88;;
68310;SDS011;55157;51.036;17.058;2023-09-30T03:14:30;13.23;;;6.00;;
68310;SDS011;55157;51.036;17.058;2023-09-30T03:16:55;12.45;;;5.70;;
68310;SDS011;55157;51.036;17.058;2023-09-30T03:19:21;11.90;;;5.50;;
68310;SDS011;55157;51.036;17.058;2023-09-30T03:21:47;12.38;;;5.90;;
68310;SDS011;55157;51.036;17.058;2023-09-30T03:24:13;8.90;;;4.85;;
68310;SDS011;55157;51.036;17.058;2023-09-30T03:26:38;12.20;;;5.20;;
68310;SDS011;55157;51.036;17.058;2023-09-30T03:29:03;9.88;;;4.97;;
68310;SDS011;55157;51.036;17.058;2023-09-30T03:31:28;10.57;;;5.65;;
68310;SDS011;55157;51.036;17.058;2023-09-30T03:33:54;10.27;;;5.18;;
68310;SDS011;55157;51.036;17.058;2023-09-30T03:36:19;9.27;;;5.43;;
68310;SDS011;55157;51.036;17.058;2023-09-30T03:38:46;8.07;;;5.43;;
68310;SDS011;55157;51.036;17.058;2023-09-30T03:41:11;10.52;;;5.18;;
68310;SDS011;55157;51.036;17.058;2023-09-30T03:43:36;10.75;;;5.10;;
68310;SDS011;55157;51.036;17.058;2023-09-30T03:46:01;10.93;;;5.43;;
68310;SDS011;55157;51.036;17.058;2023-09-30T03:48:26;9.80;;;5.25;;
68310;SDS011;55157;51.036;17.058;2023-09-30T03:50:52;9.90;;;5.03;;
68310;SDS011;55157;51.036;17.058;2023-09-30T03:53:17;11.60;;;6.70;;
68310;SDS011;55157;51.036;17.058;2023-09-30T03:55:44;10.30;;;4.72;;
68310;SDS011;55157;51.036;17.058;2023-09-30T03:58:09;9.02;;;5.30;;
68310;SDS011;55157;51.036;17.058;2023-09-30T04:00:34;15.95;;;5.72;;
68310;SDS011;55157;51.036;17.058;2023-09-30T04:03:00;11.23;;;5.60;;
68310;SDS011;55157;51.036;17.058;2023-09-30T04:05:25;11.70;;;5.40;;
68310;SDS011;55157;51.036;17.058;2023-09-30T04:07:50;13.10;;;5.70;;
68310;SDS011;55157;51.036;17.058;2023-09-30T04:10:16;12.32;;;5.65;;
68310;SDS011;55157;51.036;17.058;2023-09-30T04:12:42;10.40;;;5.45;;
68310;SDS011;55157;51.036;17.058;2023-09-30T04:15:08;8.45;;;5.22;;
68310;SDS011;55157;51.036;17.058;2023-09-30T04:17:33;11.70;;;5.60;;
68310;SDS011;55157;51.036;17.058;2023-09-30T04:19:58;14.65;;;5.45;;
68310;SDS011;55157;51.036;17.058;2023-09-30T04:22:24;9.65;;;5.50;;
68310;SDS011;55157;51.036;17.058;2023-09-30T04:24:49;12.10;;;6.25;;
68310;SDS011;55157;51.036;17.058;2023-09-30T04:27:15;13.80;;;5.85;;
68310;SDS011;55157;51.036;17.058;2023-09-30T04:29:41;8.88;;;5.18;;
68310;SDS011;55157;51.036;17.058;2023-09-30T04:32:07;11.90;;;5.50;;
68310;SDS011;55157;51.036;17.058;2023-09-30T04:34:32;9.48;;;5.60;;
68310;SDS011;55157;51.036;17.058;2023-09-30T04:36:57;10.65;;;6.07;;
68310;SDS011;55157;51.036;17.058;2023-09-30T04:39:22;9.80;;;5.60;;
68310;SDS011;55157;51.036;17.058;2023-09-30T04:41:47;14.95;;;6.18;;
68310;SDS011;55157;51.036;17.058;2023-09-30T04:44:13;10.43;;;5.30;;
68310;SDS011;55157;51.036;17.058;2023-09-30T04:46:39;9.23;;;5.25;;
68310;SDS011;55157;51.036;17.058;2023-09-30T04:49:05;8.13;;;5.88;;
68310;SDS011;55157;51.036;17.058;2023-09-30T04:51:30;9.35;;;5.10;;
68310;SDS011;55157;51.036;17.058;2023-09-30T04:53:55;10.35;;;5.88;;
68310;SDS011;55157;51.036;17.058;2023-09-30T04:56:20;12.13;;;5.50;;
68310;SDS011;55157;51.036;17.058;2023-09-30T04:58:45;7.43;;;5.10;;
68310;SDS011;55157;51.036;17.058;2023-09-30T05:01:11;14.68;;;6.03;;
68310;SDS011;55157;51.036;17.058;2023-09-30T05:03:37;13.32;;;5.65;;
68310;SDS011;55157;51.036;17.058;2023-09-30T05:06:03;9.95;;;5.10;;
68310;SDS011;55157;51.036;17.058;2023-09-30T05:08:28;9.55;;;5.43;;
68310;SDS011;55157;51.036;17.058;2023-09-30T05:10:53;10.73;;;6.20;;
68310;SDS011;55157;51.036;17.058;2023-09-30T05:13:18;11.82;;;6.18;;
68310;SDS011;55157;51.036;17.058;2023-09-30T05:15:44;13.25;;;5.80;;
68310;SDS011;55157;51.036;17.058;2023-09-30T05:18:09;16.38;;;6.63;;
68310;SDS011;55157;51.036;17.058;2023-09-30T05:20:36;10.32;;;5.50;;
68310;SDS011;55157;51.036;17.058;2023-09-30T05:23:01;14.05;;;5.20;;
68310;SDS011;55157;51.036;17.058;2023-09-30T05:25:26;17.00;;;6.68;;
68310;SDS011;55157;51.036;17.058;2023-09-30T05:27:51;10.82;;;6.22;;
68310;SDS011;55157;51.036;17.058;2023-09-30T05:30:17;11.07;;;5.85;;
68310;SDS011;55157;51.036;17.058;2023-09-30T05:32:42;10.63;;;5.50;;
68310;SDS011;55157;51.036;17.058;2023-09-30T05:35:07;9.77;;;5.50;;
68310;SDS011;55157;51.036;17.058;2023-09-30T05:37:34;13.50;;;6.07;;
68310;SDS011;55157;51.036;17.058;2023-09-30T05:39:59;13.95;;;5.60;;
68310;SDS011;55157;51.036;17.058;2023-09-30T05:42:25;11.10;;;5.72;;
68310;SDS011;55157;51.036;17.058;2023-09-30T05:44:50;14.88;;;6.20;;
68310;SDS011;55157;51.036;17.058;2023-09-30T05:47:15;12.95;;;5.53;;
68310;SDS011;55157;51.036;17.058;2023-09-30T05:49:40;12.85;;;5.82;;
68310;SDS011;55157;51.036;17.058;2023-09-30T05:52:06;12.70;;;6.20;;
68310;SDS011;55157;51.036;17.058;2023-09-30T05:54:32;10.27;;;5.65;;
68310;SDS011;55157;51.036;17.058;2023-09-30T05:56:58;10.05;;;4.95;;
68310;SDS011;55157;51.036;17.058;2023-09-30T05:59:23;11.55;;;6.07;;
68310;SDS011;55157;51.036;17.058;2023-09-30T06:01:48;13.25;;;5.68;;
68310;SDS011;55157;51.036;17.058;2023-09-30T06:04:13;14.80;;;5.00;;
68310;SDS011;55157;51.036;17.058;2023-09-30T06:06:39;10.52;;;5.30;;
68310;SDS011;55157;51.036;17.058;2023-09-30T06:09:04;7.80;;;4.50;;
68310;SDS011;55157;51.036;17.058;2023-09-30T06:11:31;10.68;;;4.05;;
68310;SDS011;55157;51.036;17.058;2023-09-30T06:13:56;7.65;;;3.88;;
68310;SDS011;55157;51.036;17.058;2023-09-30T06:16:21;6.30;;;3.78;;
68310;SDS011;55157;51.036;17.058;2023-09-30T06:18:47;8.00;;;4.03;;
68310;SDS011;55157;51.036;17.058;2023-09-30T06:21:12;9.63;;;3.67;;
68310;SDS011;55157;51.036;17.058;2023-09-30T06:23:38;11.60;;;3.35;;
68310;SDS011;55157;51.036;17.058;2023-09-30T06:26:03;6.90;;;3.50;;
68310;SDS011;55157;51.036;17.058;2023-09-30T06:28:30;6.15;;;3.10;;
68310;SDS011;55157;51.036;17.058;2023-09-30T06:30:55;6.88;;;3.53;;
68310;SDS011;55157;51.036;17.058;2023-09-30T06:33:20;7.35;;;2.40;;
68310;SDS011;55157;51.036;17.058;2023-09-30T06:35:45;7.55;;;2.60;;
68310;SDS011;55157;51.036;17.058;2023-09-30T06:38:11;6.20;;;1.98;;
68310;SDS011;55157;51.036;17.058;2023-09-30T06:40:36;4.80;;;2.00;;
68310;SDS011;55157;51.036;17.058;2023-09-30T06:43:01;4.10;;;1.65;;
68310;SDS011;55157;51.036;17.058;2023-09-30T06:45:28;11.50;;;2.35;;
68310;SDS011;55157;51.036;17.058;2023-09-30T06:47:53;5.00;;;2.45;;
68310;SDS011;55157;51.036;17.058;2023-09-30T06:50:18;4.45;;;2.00;;
68310;SDS011;55157;51.036;17.058;2023-09-30T06:52:43;6.30;;;2.58;;
68310;SDS011;55157;51.036;17.058;2023-09-30T06:55:09;10.07;;;2.63;;
68310;SDS011;55157;51.036;17.058;2023-09-30T06:57:35;7.70;;;2.42;;
68310;SDS011;55157;51.036;17.058;2023-09-30T07:00:00;7.82;;;3.65;;
68310;SDS011;55157;51.036;17.058;2023-09-30T07:02:27;6.43;;;2.80;;
68310;SDS011;55157;51.036;17.058;2023-09-30T07:04:53;6.03;;;4.03;;
68310;SDS011;55157;51.036;17.058;2023-09-30T07:07:18;7.85;;;3.38;;
68310;SDS011;55157;51.036;17.058;2023-09-30T07:09:43;6.78;;;3.50;;
68310;SDS011;55157;51.036;17.058;2023-09-30T07:12:09;6.97;;;3.38;;
68310;SDS011;55157;51.036;17.058;2023-09-30T07:14:34;12.05;;;3.65;;
68310;SDS011;55157;51.036;17.058;2023-09-30T07:16:59;6.30;;;3.38;;
68310;SDS011;55157;51.036;17.058;2023-09-30T07:19:26;9.40;;;3.72;;
68310;SDS011;55157;51.036;17.058;2023-09-30T07:21:51;5.20;;;3.17;;
68310;SDS011;55157;51.036;17.058;2023-09-30T07:24:16;6.95;;;3.38;;
68310;SDS011;55157;51.036;17.058;2023-09-30T07:26:41;8.45;;;3.80;;
68310;SDS011;55157;51.036;17.058;2023-09-30T07:29:08;5.40;;;2.90;;
68310;SDS011;55157;51.036;17.058;2023-09-30T07:31:34;9.90;;;3.88;;
68310;SDS011;55157;51.036;17.058;2023-09-30T07:33:59;7.13;;;3.40;;
68310;SDS011;55157;51.036;17.058;2023-09-30T07:36:26;8.82;;;3.13;;
68310;SDS011;55157;51.036;17.058;2023-09-30T07:38:51;9.23;;;3.03;;
68310;SDS011;55157;51.036;17.058;2023-09-30T07:41:16;7.38;;;2.28;;
68310;SDS011;55157;51.036;17.058;2023-09-30T07:43:42;10.63;;;3.22;;
68310;SDS011;55157;51.036;17.058;2023-09-30T07:46:07;7.70;;;2.72;;
68310;SDS011;55157;51.036;17.058;2023-09-30T07:48:33;11.88;;;3.53;;
68310;SDS011;55157;51.036;17.058;2023-09-30T07:50:58;6.70;;;2.25;;
68310;SDS011;55157;51.036;17.058;2023-09-30T07:53:25;11.30;;;2.97;;
68310;SDS011;55157;51.036;17.058;2023-09-30T07:55:50;10.32;;;2.90;;
68310;SDS011;55157;51.036;17.058;2023-09-30T07:58:15;12.90;;;2.80;;
68310;SDS011;55157;51.036;17.058;2023-09-30T08:00:40;8.90;;;2.67;;
68310;SDS011;55157;51.036;17.058;2023-09-30T08:03:06;15.35;;;2.95;;
68310;SDS011;55157;51.036;17.058;2023-09-30T08:05:31;14.27;;;2.30;;
68310;SDS011;55157;51.036;17.058;2023-09-30T08:07:56;6.82;;;2.80;;
68310;SDS011;55157;51.036;17.058;2023-09-30T08:10:23;8.00;;;3.33;;
68310;SDS011;55157;51.036;17.058;2023-09-30T08:12:48;14.70;;;2.70;;
68310;SDS011;55157;51.036;17.058;2023-09-30T08:15:13;6.18;;;2.67;;
68310;SDS011;55157;51.036;17.058;2023-09-30T08:17:39;8.40;;;3.22;;
68310;SDS011;55157;51.036;17.058;2023-09-30T08:20:04;8.40;;;2.50;;
68310;SDS011;55157;51.036;17.058;2023-09-30T08:22:30;9.77;;;2.75;;
68310;SDS011;55157;51.036;17.058;2023-09-30T08:24:55;8.43;;;2.90;;
68310;SDS011;55157;51.036;17.058;2023-09-30T08:27:22;6.82;;;2.38;;
68310;SDS011;55157;51.036;17.058;2023-09-30T08:29:47;7.57;;;2.15;;
68310;SDS011;55157;51.036;17.058;2023-09-30T08:32:12;8.23;;;2.20;;
68310;SDS011;55157;51.036;17.058;2023-09-30T08:34:38;5.45;;;1.80;;
68310;SDS011;55157;51.036;17.058;2023-09-30T08:37:03;10.63;;;2.00;;
68310;SDS011;55157;51.036;17.058;2023-09-30T08:39:28;7.68;;;2.42;;
68310;SDS011;55157;51.036;17.058;2023-09-30T08:41:54;8.60;;;2.53;;
68310;SDS011;55157;51.036;17.058;2023-09-30T08:44:21;5.95;;;2.30;;
68310;SDS011;55157;51.036;17.058;2023-09-30T08:46:46;5.22;;;1.77;;
68310;SDS011;55157;51.036;17.058;2023-09-30T08:49:11;8.65;;;2.28;;
68310;SDS011;55157;51.036;17.058;2023-09-30T08:51:37;7.95;;;2.40;;
68310;SDS011;55157;51.036;17.058;2023-09-30T08:54:03;10.27;;;2.30;;
68310;SDS011;55157;51.036;17.058;2023-09-30T08:56:28;10.73;;;2.88;;
68310;SDS011;55157;51.036;17.058;2023-09-30T08:58:55;6.97;;;2.05;;
68310;SDS011;55157;51.036;17.058;2023-09-30T09:01:23;6.10;;;2.50;;
68310;SDS011;55157;51.036;17.058;2023-09-30T09:03:48;13.30;;;3.05;;
68310;SDS011;55157;51.036;17.058;2023-09-30T09:06:13;5.47;;;1.77;;
68310;SDS011;55157;51.036;17.058;2023-09-30T09:08:38;8.63;;;2.37;;
68310;SDS011;55157;51.036;17.058;2023-09-30T09:11:04;9.30;;;2.10;;
68310;SDS011;55157;51.036;17.058;2023-09-30T09:13:29;11.43;;;2.60;;
68310;SDS011;55157;51.036;17.058;2023-09-30T09:16:09;4.78;;;2.40;;
68310;SDS011;55157;51.036;17.058;2023-09-30T09:18:36;5.93;;;2.40;;
68310;SDS011;55157;51.036;17.058;2023-09-30T09:21:07;29.70;;;2.90;;
68310;SDS011;55157;51.036;17.058;2023-09-30T09:23:33;7.15;;;2.50;;
68310;SDS011;55157;51.036;17.058;2023-09-30T09:26:03;6.10;;;2.63;;
68310;SDS011;55157;51.036;17.058;2023-09-30T09:28:33;6.30;;;2.37;;
68310;SDS011;55157;51.036;17.058;2023-09-30T09:30:58;6.30;;;2.38;;
68310;SDS011;55157;51.036;17.058;2023-09-30T09:33:24;6.47;;;1.95;;
68310;SDS011;55157;51.036;17.058;2023-09-30T09:36:01;5.82;;;2.10;;
68310;SDS011;55157;51.036;17.058;2023-09-30T09:38:26;9.65;;;2.40;;
68310;SDS011;55157;51.036;17.058;2023-09-30T09:40:58;7.65;;;2.63;;
68310;SDS011;55157;51.036;17.058;2023-09-30T09:43:24;7.95;;;2.83;;
68310;SDS011;55157;51.036;17.058;2023-09-30T09:45:49;7.95;;;2.42;;
68310;SDS011;55157;51.036;17.058;2023-09-30T09:48:14;6.45;;;2.10;;
68310;SDS011;55157;51.036;17.058;2023-09-30T09:50:40;5.32;;;1.77;;
68310;SDS011;55157;51.036;17.058;2023-09-30T09:53:07;7.73;;;2.40;;
68310;SDS011;55157;51.036;17.058;2023-09-30T09:55:32;5.97;;;2.25;;
68310;SDS011;55157;51.036;17.058;2023-09-30T09:57:58;4.70;;;1.83;;
68310;SDS011;55157;51.036;17.058;2023-09-30T10:00:24;6.22;;;2.28;;
68310;SDS011;55157;51.036;17.058;2023-09-30T10:02:50;6.63;;;2.33;;
68310;SDS011;55157;51.036;17.058;2023-09-30T10:05:16;7.22;;;2.10;;
68310;SDS011;55157;51.036;17.058;2023-09-30T10:07:43;6.55;;;2.30;;
68310;SDS011;55157;51.036;17.058;2023-09-30T10:10:12;6.65;;;2.10;;
68310;SDS011;55157;51.036;17.058;2023-09-30T10:12:38;12.20;;;2.45;;
68310;SDS011;55157;51.036;17.058;2023-09-30T10:17:56;9.45;;;2.50;;
68310;SDS011;55157;51.036;17.058;2023-09-30T10:20:26;8.65;;;2.63;;
68310;SDS011;55157;51.036;17.058;2023-09-30T10:23:03;5.85;;;2.53;;
68310;SDS011;55157;51.036;17.058;2023-09-30T10:25:44;7.55;;;2.20;;
68310;SDS011;55157;51.036;17.058;2023-09-30T10:31:09;4.03;;;2.08;;
68310;SDS011;55157;51.036;17.058;2023-09-30T10:33:34;6.32;;;2.47;;
68310;SDS011;55157;51.036;17.058;2023-09-30T10:36:00;6.33;;;2.20;;
68310;SDS011;55157;51.036;17.058;2023-09-30T10:38:38;4.28;;;2.25;;
68310;SDS011;55157;51.036;17.058;2023-09-30T10:41:05;7.05;;;2.70;;
68310;SDS011;55157;51.036;17.058;2023-09-30T10:43:31;5.28;;;1.98;;
68310;SDS011;55157;51.036;17.058;2023-09-30T10:45:57;5.68;;;2.58;;
68310;SDS011;55157;51.036;17.058;2023-09-30T10:48:34;6.87;;;3.23;;
68310;SDS011;55157;51.036;17.058;2023-09-30T10:51:00;13.77;;;3.47;;
68310;SDS011;55157;51.036;17.058;2023-09-30T10:53:25;10.18;;;3.60;;
68310;SDS011;55157;51.036;17.058;2023-09-30T10:55:53;9.77;;;3.40;;
68310;SDS011;55157;51.036;17.058;2023-09-30T10:58:20;24.27;;;3.75;;
68310;SDS011;55157;51.036;17.058;2023-09-30T11:00:51;16.85;;;4.40;;
68310;SDS011;55157;51.036;17.058;2023-09-30T11:03:19;13.52;;;2.72;;
68310;SDS011;55157;51.036;17.058;2023-09-30T11:05:46;14.63;;;3.30;;
68310;SDS011;55157;51.036;17.058;2023-09-30T11:08:12;7.50;;;2.97;;
68310;SDS011;55157;51.036;17.058;2023-09-30T11:10:46;8.80;;;3.28;;
68310;SDS011;55157;51.036;17.058;2023-09-30T11:13:11;7.45;;;3.25;;
68310;SDS011;55157;51.036;17.058;2023-09-30T11:15:38;6.23;;;2.80;;
68310;SDS011;55157;51.036;17.058;2023-09-30T11:18:12;10.65;;;3.08;;
68310;SDS011;55157;51.036;17.058;2023-09-30T11:20:37;8.48;;;3.22;;
68310;SDS011;55157;51.036;17.058;2023-09-30T11:23:03;11.87;;;3.30;;
68310;SDS011;55157;51.036;17.058;2023-09-30T11:25:28;8.95;;;3.28;;
68310;SDS011;55157;51.036;17.058;2023-09-30T11:27:53;11.90;;;4.03;;
68310;SDS011;55157;51.036;17.058;2023-09-30T11:30:19;12.00;;;3.57;;
68310;SDS011;55157;51.036;17.058;2023-09-30T11:32:45;10.30;;;3.50;;
68310;SDS011;55157;51.036;17.058;2023-09-30T11:35:21;9.05;;;3.55;;
68310;SDS011;55157;51.036;17.058;2023-09-30T11:37:46;13.20;;;4.72;;
68310;SDS011;55157;51.036;17.058;2023-09-30T11:40:12;11.52;;;2.97;;
68310;SDS011;55157;51.036;17.058;2023-09-30T11:42:37;8.65;;;3.17;;
68310;SDS011;55157;51.036;17.058;2023-09-30T11:45:17;11.40;;;3.25;;
68310;SDS011;55157;51.036;17.058;2023-09-30T11:47:42;8.93;;;3.55;;
68310;SDS011;55157;51.036;17.058;2023-09-30T11:50:09;8.70;;;2.93;;
68310;SDS011;55157;51.036;17.058;2023-09-30T11:52:35;9.43;;;3.67;;
68310;SDS011;55157;51.036;17.058;2023-09-30T11:55:00;12.10;;;3.70;;
68310;SDS011;55157;51.036;17.058;2023-09-30T11:57:25;15.73;;;4.73;;
68310;SDS011;55157;51.036;17.058;2023-09-30T11:59:50;15.23;;;4.27;;
68310;SDS011;55157;51.036;17.058;2023-09-30T12:02:15;13.40;;;4.10;;
68310;SDS011;55157;51.036;17.058;2023-09-30T12:04:41;10.02;;;2.92;;
68310;SDS011;55157;51.036;17.058;2023-09-30T12:07:08;18.25;;;3.92;;
68310;SDS011;55157;51.036;17.058;2023-09-30T12:09:33;11.45;;;4.28;;
68310;SDS011;55157;51.036;17.058;2023-09-30T12:11:58;19.70;;;4.68;;
68310;SDS011;55157;51.036;17.058;2023-09-30T12:14:24;12.93;;;4.27;;
68310;SDS011;55157;51.036;17.058;2023-09-30T12:16:49;13.73;;;4.18;;
68310;SDS011;55157;51.036;17.058;2023-09-30T12:19:15;14.25;;;4.30;;
68310;SDS011;55157;51.036;17.058;2023-09-30T12:21:40;12.33;;;2.97;;
68310;SDS011;55157;51.036;17.058;2023-09-30T12:24:07;9.13;;;3.45;;
68310;SDS011;55157;51.036;17.058;2023-09-30T12:26:33;16.02;;;4.65;;
68310;SDS011;55157;51.036;17.058;2023-09-30T12:28:58;12.48;;;3.88;;
68310;SDS011;55157;51.036;17.058;2023-09-30T12:31:23;12.68;;;3.85;;
68310;SDS011;55157;51.036;17.058;2023-09-30T12:33:49;11.70;;;3.47;;
68310;SDS011;55157;51.036;17.058;2023-09-30T12:36:14;7.43;;;3.60;;
68310;SDS011;55157;51.036;17.058;2023-09-30T12:38:39;8.77;;;3.17;;
68310;SDS011;55157;51.036;17.058;2023-09-30T12:41:06;7.70;;;2.57;;
68310;SDS011;55157;51.036;17.058;2023-09-30T12:43:31;11.23;;;2.78;;
68310;SDS011;55157;51.036;17.058;2023-09-30T12:45:56;7.57;;;2.90;;
68310;SDS011;55157;51.036;17.058;2023-09-30T12:48:21;10.20;;;3.00;;
68310;SDS011;55157;51.036;17.058;2023-09-30T12:50:47;8.30;;;2.60;;
68310;SDS011;55157;51.036;17.058;2023-09-30T12:53:12;10.20;;;3.35;;
68310;SDS011;55157;51.036;17.058;2023-09-30T12:55:37;11.13;;;3.63;;
68310;SDS011;55157;51.036;17.058;2023-09-30T12:58:04;8.70;;;3.65;;
68310;SDS011;55157;51.036;17.058;2023-09-30T13:00:30;10.70;;;3.92;;
68310;SDS011;55157;51.036;17.058;2023-09-30T13:02:56;11.82;;;2.95;;
68310;SDS011;55157;51.036;17.058;2023-09-30T13:05:21;8.45;;;2.72;;
68310;SDS011;55157;51.036;17.058;2023-09-30T13:07:46;12.23;;;3.20;;
68310;SDS011;55157;51.036;17.058;2023-09-30T13:10:11;10.00;;;3.17;;
68310;SDS011;55157;51.036;17.058;2023-09-30T13:12:37;12.50;;;3.00;;
68310;SDS011;55157;51.036;17.058;2023-09-30T13:15:04;11.73;;;3.40;;
68310;SDS011;55157;51.036;17.058;2023-09-30T13:17:29;9.25;;;3.45;;
68310;SDS011;55157;51.036;17.058;2023-09-30T13:19:54;11.27;;;3.33;;
68310;SDS011;55157;51.036;17.058;2023-09-30T13:22:19;12.80;;;4.78;;
68310;SDS011;55157;51.036;17.058;2023-09-30T13:24:45;12.27;;;3.45;;
68310;SDS011;55157;51.036;17.058;2023-09-30T13:27:10;12.50;;;3.55;;
68310;SDS011;55157;51.036;17.058;2023-09-30T13:29:35;14.13;;;3.17;;
68310;SDS011;55157;51.036;17.058;2023-09-30T13:32:02;8.93;;;3.28;;
68310;SDS011;55157;51.036;17.058;2023-09-30T13:34:27;10.50;;;3.15;;
68310;SDS011;55157;51.036;17.058;2023-09-30T13:36:52;9.85;;;3.25;;
68310;SDS011;55157;51.036;17.058;2023-09-30T13:39:17;8.77;;;3.00;;
68310;SDS011;55157;51.036;17.058;2023-09-30T13:41:43;15.53;;;4.37;;
68310;SDS011;55157;51.036;17.058;2023-09-30T13:44:08;8.73;;;3.08;;
68310;SDS011;55157;51.036;17.058;2023-09-30T13:46:33;7.93;;;2.63;;
68310;SDS011;55157;51.036;17.058;2023-09-30T13:49:00;11.98;;;3.13;;
68310;SDS011;55157;51.036;17.058;2023-09-30T13:51:25;6.72;;;2.60;;
68310;SDS011;55157;51.036;17.058;2023-09-30T13:53:50;12.25;;;3.53;;
68310;SDS011;55157;51.036;17.058;2023-09-30T13:56:16;11.93;;;3.30;;
68310;SDS011;55157;51.036;17.058;2023-09-30T13:58:41;11.50;;;3.03;;
68310;SDS011;55157;51.036;17.058;2023-09-30T14:01:06;7.13;;;2.80;;
68310;SDS011;55157;51.036;17.058;2023-09-30T14:03:31;10.43;;;2.90;;
68310;SDS011;55157;51.036;17.058;2023-09-30T14:05:58;13.90;;;3.00;;
68310;SDS011;55157;51.036;17.058;2023-09-30T14:08:23;8.93;;;2.97;;
68310;SDS011;55157;51.036;17.058;2023-09-30T14:10:49;10.52;;;3.80;;
68310;SDS011;55157;51.036;17.058;2023-09-30T14:13:14;9.43;;;3.58;;
68310;SDS011;55157;51.036;17.058;2023-09-30T14:15:39;14.07;;;3.37;;
68310;SDS011;55157;51.036;17.058;2023-09-30T14:18:04;9.90;;;3.13;;
68310;SDS011;55157;51.036;17.058;2023-09-30T14:20:29;13.07;;;3.33;;
68310;SDS011;55157;51.036;17.058;2023-09-30T14:22:56;16.50;;;3.30;;